createdAt,value
2023-05-05T00:01:50.288Z,71.04
2023-05-05T00:06:53.398Z,71.47
2023-05-05T00:11:56.281Z,71.65
2023-05-05T00:16:58.986Z,72.17
2023-05-05T00:22:01.858Z,72.15
2023-05-05T00:27:05.096Z,71.99
2023-05-05T00:32:08.222Z,72.31
2023-05-05T00:37:11.625Z,72.76
2023-05-05T00:42:14.382Z,72.84
2023-05-05T00:47:17.660Z,73.15
2023-05-05T00:52:20.533Z,73.39
2023-05-05T00:57:24.935Z,74.10
2023-05-05T01:02:28.207Z,74.20
2023-05-05T01:07:38.081Z,74.24
2023-05-05T01:12:58.808Z,74.82
2023-05-05T01:18:42.808Z,74.91
2023-05-05T01:24:03.600Z,75.00
2023-05-05T01:29:46.390Z,75.24
2023-05-05T01:34:58.901Z,75.57
2023-05-05T01:40:06.792Z,75.75
2023-05-05T01:45:12.099Z,75.67
2023-05-05T01:50:15.524Z,76.05
2023-05-05T01:55:20.117Z,75.99
2023-05-05T02:00:25.544Z,76.02
2023-05-05T02:05:30.213Z,76.37
2023-05-05T02:10:33.573Z,76.38
2023-05-05T02:15:38.683Z,76.21
2023-05-05T02:20:41.983Z,76.01
2023-05-05T02:25:49.401Z,75.91
2023-05-05T02:31:00.876Z,75.82
2023-05-05T02:36:22.154Z,75.50
2023-05-05T02:41:35.121Z,75.55
2023-05-05T02:46:43.715Z,75.27
2023-05-05T02:51:46.529Z,74.60
2023-05-05T02:57:01.346Z,74.29
2023-05-05T03:02:22.838Z,73.38
2023-05-05T03:07:31.132Z,72.98
2023-05-05T03:12:49.870Z,72.56
2023-05-05T03:17:59.900Z,72.41
2023-05-05T03:23:03.872Z,71.74
2023-05-05T03:28:08.107Z,70.37
2023-05-05T03:33:12.260Z,67.79
2023-05-05T03:38:17.008Z,64.73
2023-05-05T03:43:21.015Z,61.83
2023-05-05T03:48:24.352Z,59.46
2023-05-05T03:53:28.088Z,57.30
2023-05-05T03:58:31.298Z,54.29
2023-05-05T04:03:34.382Z,52.94
2023-05-05T04:08:37.651Z,51.68
2023-05-05T04:13:41.641Z,49.36
2023-05-05T04:18:44.758Z,48.19
2023-05-05T04:23:47.984Z,48.16
2023-05-05T04:28:50.716Z,49.56
2023-05-05T04:33:55.401Z,51.73
2023-05-05T04:38:58.159Z,52.99
2023-05-05T04:44:01.184Z,53.64
2023-05-05T04:49:05.346Z,54.49
2023-05-05T04:54:09.547Z,54.18
2023-05-05T04:59:12.401Z,54.63
2023-05-05T05:04:18.849Z,54.77
2023-05-05T05:09:21.714Z,54.88
2023-05-05T05:14:24.620Z,55.61
2023-05-05T05:19:27.458Z,55.37
2023-05-05T05:24:30.419Z,55.21
2023-05-05T05:29:33.264Z,54.52
2023-05-05T05:34:36.868Z,54.68
2023-05-05T05:39:43.510Z,52.80
2023-05-05T05:44:47.986Z,52.35
2023-05-05T05:49:51.859Z,46.13
2023-05-05T05:54:56.586Z,42.37
2023-05-05T06:00:01.942Z,39.60
2023-05-05T06:05:14.304Z,37.64
2023-05-05T06:10:26.460Z,36.42
2023-05-05T06:15:34.146Z,34.73
2023-05-05T06:20:38.971Z,33.80
2023-05-05T06:25:42.122Z,32.64
2023-05-05T06:30:44.719Z,31.69
2023-05-05T06:35:48.040Z,31.70
2023-05-05T06:40:51.009Z,30.60
2023-05-05T06:45:54.115Z,30.76
2023-05-05T06:50:57.209Z,30.79
2023-05-05T06:55:59.946Z,31.06
2023-05-05T07:01:02.691Z,30.65
2023-05-05T07:06:05.477Z,30.75
2023-05-05T07:11:08.254Z,29.86
2023-05-05T07:16:11.143Z,29.62
2023-05-05T07:21:13.921Z,29.82
2023-05-05T07:26:16.829Z,29.42
2023-05-05T07:31:22.631Z,28.37
2023-05-05T07:36:25.631Z,28.64
2023-05-05T07:41:28.355Z,28.56
2023-05-05T07:46:31.122Z,28.07
2023-05-05T07:51:34.631Z,29.89
2023-05-05T07:56:37.929Z,29.08
2023-05-05T08:01:40.808Z,28.65
2023-05-05T08:06:43.666Z,28.58
2023-05-05T08:11:46.468Z,28.40
2023-05-05T08:16:49.340Z,27.18
2023-05-05T08:21:54.026Z,26.91
2023-05-05T08:26:57.160Z,27.19
2023-05-05T08:32:00.529Z,26.89
2023-05-05T08:37:03.432Z,26.61
2023-05-05T08:42:06.583Z,26.80
2023-05-05T08:47:11.400Z,28.13
2023-05-05T08:52:24.529Z,28.51
2023-05-05T08:57:56.760Z,28.47
2023-05-05T09:03:00.439Z,27.69
2023-05-05T09:08:08.458Z,29.77
2023-05-05T09:13:11.357Z,31.52
2023-05-05T09:18:14.751Z,32.19
2023-05-05T09:23:21.243Z,32.78
2023-05-05T09:28:24.654Z,33.33
2023-05-05T09:33:31.933Z,33.10
2023-05-05T09:38:35.811Z,32.09
2023-05-05T09:43:55.500Z,31.13
2023-05-05T09:49:12.626Z,30.37
2023-05-05T09:54:29.399Z,29.44
2023-05-05T09:59:32.501Z,29.30
2023-05-05T10:04:36.380Z,28.53
2023-05-05T10:09:38.944Z,28.38
2023-05-05T10:14:42.178Z,27.99
2023-05-05T10:19:46.060Z,27.54
2023-05-05T10:25:02.848Z,27.94
2023-05-05T10:30:08.218Z,28.26
2023-05-05T10:35:16.351Z,28.32
2023-05-05T10:40:22.722Z,30.00
2023-05-05T10:45:25.734Z,30.27
2023-05-05T10:50:42.047Z,29.70
2023-05-05T10:56:02.997Z,29.69
2023-05-05T11:01:09.457Z,31.04
2023-05-05T11:06:13.819Z,29.98
2023-05-05T11:11:16.590Z,29.52
2023-05-05T11:16:47.633Z,29.62
2023-05-05T11:22:09.089Z,30.11
2023-05-05T11:27:11.887Z,30.34
2023-05-05T11:32:16.179Z,31.64
2023-05-05T11:37:24.602Z,31.31
2023-05-05T11:42:30.571Z,32.19
2023-05-05T11:47:35.287Z,33.33
2023-05-05T11:52:38.560Z,33.99
2023-05-05T11:57:41.610Z,34.27
2023-05-05T12:02:59.942Z,34.70
2023-05-05T12:08:03.159Z,34.31
2023-05-05T12:13:19.083Z,34.03
2023-05-05T12:18:30.716Z,33.75
2023-05-05T12:23:42.698Z,33.50
2023-05-05T12:28:58.419Z,33.73
2023-05-05T12:34:14.802Z,33.27
2023-05-05T12:39:26.241Z,33.22
2023-05-05T12:44:42.171Z,33.25
2023-05-05T12:49:55.157Z,33.46
2023-05-05T12:55:05.526Z,33.79
2023-05-05T13:00:18.577Z,34.39
2023-05-05T13:05:39.243Z,34.39
2023-05-05T13:11:00.933Z,34.15
2023-05-05T13:16:10.621Z,34.19
2023-05-05T13:21:17.156Z,34.20
2023-05-05T13:26:20.809Z,34.28
2023-05-05T13:31:24.820Z,34.09
2023-05-05T13:36:27.633Z,34.47
2023-05-05T13:41:30.599Z,34.38
2023-05-05T13:46:33.985Z,33.57
2023-05-05T13:52:05.917Z,33.60
2023-05-05T13:57:26.812Z,33.42
2023-05-05T14:02:29.605Z,33.24
2023-05-05T14:07:33.130Z,32.78
2023-05-05T14:12:49.162Z,33.33
2023-05-05T14:17:55.247Z,32.98
2023-05-05T14:23:01.494Z,33.02
2023-05-05T14:28:09.793Z,33.08
2023-05-05T14:33:19.275Z,33.37
2023-05-05T14:38:23.592Z,33.00
2023-05-05T14:48:49.857Z,33.37
2023-05-05T14:53:56.495Z,33.13
2023-05-05T14:59:00.191Z,32.84
2023-05-05T15:04:03.237Z,33.19
2023-05-05T15:09:07.110Z,33.18
2023-05-05T15:14:10.272Z,33.04
2023-05-05T15:19:12.978Z,33.34
2023-05-05T15:24:16.255Z,33.32
2023-05-05T15:29:18.977Z,36.93
2023-05-05T15:34:22.897Z,40.29
2023-05-05T15:39:25.813Z,44.92
2023-05-05T15:44:30.652Z,46.72
2023-05-05T15:49:38.912Z,47.61
2023-05-05T15:54:42.153Z,49.41
2023-05-05T15:59:45.125Z,50.19
2023-05-05T16:04:50.871Z,50.97
2023-05-05T16:09:55.339Z,51.35
2023-05-05T16:14:59.094Z,51.34
2023-05-05T16:20:01.999Z,52.10
2023-05-05T16:25:06.761Z,52.98
2023-05-05T16:30:14.038Z,53.04
2023-05-05T16:35:18.770Z,53.85
2023-05-05T16:40:22.815Z,54.08
2023-05-05T16:45:26.652Z,53.90
2023-05-05T16:50:29.671Z,53.63
2023-05-05T16:55:34.897Z,53.81
2023-05-05T17:00:38.026Z,53.76
2023-05-05T17:05:41.516Z,53.44
2023-05-05T17:10:45.872Z,52.90
2023-05-05T17:15:50.413Z,53.26
2023-05-05T17:20:54.021Z,53.08
2023-05-05T17:25:59.096Z,53.43
2023-05-05T17:31:04.639Z,53.83
2023-05-05T17:36:10.619Z,53.72
2023-05-05T17:41:14.554Z,53.96
2023-05-05T17:46:17.649Z,54.23
2023-05-05T17:51:20.678Z,54.09
2023-05-05T17:56:23.735Z,54.54
2023-05-05T18:01:28.156Z,54.38
2023-05-05T18:06:31.126Z,54.74
2023-05-05T18:11:35.513Z,55.10
2023-05-05T18:16:38.517Z,55.58
2023-05-05T18:21:43.183Z,55.60
2023-05-05T18:26:50.780Z,55.72
2023-05-05T18:31:55.037Z,56.57
2023-05-05T18:36:57.969Z,56.92
2023-05-05T18:42:00.879Z,57.40
2023-05-05T18:47:03.863Z,57.81
2023-05-05T18:52:06.856Z,57.48
2023-05-05T18:57:09.494Z,57.96
2023-05-05T19:02:12.216Z,58.21
2023-05-05T19:07:24.099Z,58.30
2023-05-05T19:12:30.908Z,59.67
2023-05-05T19:17:33.707Z,60.09
2023-05-05T19:22:37.006Z,59.96
2023-05-05T19:27:39.886Z,60.63
2023-05-05T19:32:42.644Z,60.74
2023-05-05T19:37:46.216Z,61.04
2023-05-05T19:42:49.251Z,61.35
2023-05-05T19:47:52.845Z,61.13
2023-05-05T19:52:55.896Z,61.15
2023-05-05T19:57:58.657Z,61.83
2023-05-05T20:03:02.377Z,62.42
2023-05-05T20:08:06.008Z,62.80
2023-05-05T20:13:08.971Z,63.12
2023-05-05T20:18:11.771Z,63.12
2023-05-05T20:23:14.607Z,63.30
2023-05-05T20:28:17.486Z,63.52
2023-05-05T20:33:20.313Z,63.75
2023-05-05T20:38:23.232Z,64.84
2023-05-05T20:43:26.093Z,64.61
2023-05-05T20:48:30.075Z,64.36
2023-05-05T20:53:33.397Z,64.44
2023-05-05T20:58:36.644Z,65.02
2023-05-05T21:03:39.538Z,65.43
2023-05-05T21:08:42.297Z,65.52
2023-05-05T21:13:44.963Z,66.54
2023-05-05T21:18:47.714Z,66.61
2023-05-05T21:23:50.388Z,66.56
2023-05-05T21:28:53.372Z,66.48
2023-05-05T21:33:56.233Z,66.59
2023-05-05T21:39:00.359Z,66.99
2023-05-05T21:44:03.351Z,66.49
2023-05-05T21:49:16.979Z,67.04
2023-05-05T21:54:19.703Z,67.36
2023-05-05T21:59:22.400Z,67.58
2023-05-05T22:04:25.097Z,67.81
2023-05-05T22:09:28.055Z,67.97
2023-05-05T22:14:31.025Z,68.36
2023-05-05T22:19:33.805Z,68.35
2023-05-05T22:24:36.611Z,68.62
2023-05-05T22:29:39.472Z,68.78
2023-05-05T22:34:42.330Z,68.79
2023-05-05T22:39:45.168Z,69.02
2023-05-05T22:44:48.042Z,68.88
2023-05-05T22:49:51.095Z,69.15
2023-05-05T22:54:53.796Z,69.18
2023-05-05T22:59:56.637Z,69.33
2023-05-05T23:04:59.268Z,69.65
2023-05-05T23:10:02.399Z,69.72
2023-05-05T23:15:06.547Z,69.84
2023-05-05T23:20:12.295Z,70.12
2023-05-05T23:25:15.383Z,70.47
2023-05-05T23:30:18.540Z,70.69
2023-05-05T23:35:21.702Z,70.57
2023-05-05T23:40:24.555Z,70.92
2023-05-05T23:45:27.391Z,70.99
2023-05-05T23:50:30.608Z,70.82
2023-05-05T23:55:33.405Z,70.95
